sensor_id;sensor_type;location;lat;lon;timestamp;pressure;altitude;pressure_sealevel;temperature;humidity
62655;BME280;48717;55.556;37.816;2022-12-18T00:01:15;98841.56;;;-5.80;100.00
62655;BME280;48717;55.556;37.816;2022-12-18T00:03:43;98837.41;;;-5.78;100.00
62655;BME280;48717;55.556;37.816;2022-12-18T00:06:13;98836.44;;;-5.80;100.00
62655;BME280;48717;55.556;37.816;2022-12-18T00:08:42;98820.44;;;-5.74;100.00
62655;BME280;48717;55.556;37.816;2022-12-18T00:11:11;98824.56;;;-5.78;100.00
62655;BME280;48717;55.556;37.816;2022-12-18T00:13:39;98819.41;;;-5.78;100.00
62655;BME280;48717;55.556;37.816;2022-12-18T00:16:10;98803.03;;;-5.80;100.00
62655;BME280;48717;55.556;37.816;2022-12-18T00:18:38;98806.59;;;-5.78;100.00
62655;BME280;48717;55.556;37.816;2022-12-18T00:21:08;98803.84;;;-5.81;100.00
62655;BME280;48717;55.556;37.816;2022-12-18T00:23:36;98802.91;;;-5.83;100.00
62655;BME280;48717;55.556;37.816;2022-12-18T00:26:13;98787.84;;;-5.93;100.00
62655;BME280;48717;55.556;37.816;2022-12-18T00:28:43;98757.66;;;-5.99;100.00
62655;BME280;48717;55.556;37.816;2022-12-18T00:31:12;98784.78;;;-5.86;100.00
62655;BME280;48717;55.556;37.816;2022-12-18T00:33:40;98768.06;;;-5.96;100.00
62655;BME280;48717;55.556;37.816;2022-12-18T00:36:11;98779.81;;;-5.83;100.00
62655;BME280;48717;55.556;37.816;2022-12-18T00:38:39;98767.47;;;-5.90;100.00
62655;BME280;48717;55.556;37.816;2022-12-18T00:41:09;98773.84;;;-5.82;100.00
62655;BME280;48717;55.556;37.816;2022-12-18T00:43:37;98767.63;;;-5.87;100.00
62655;BME280;48717;55.556;37.816;2022-12-18T00:46:05;98755.56;;;-5.88;100.00
62655;BME280;48717;55.556;37.816;2022-12-18T00:48:32;98763.09;;;-5.93;100.00
62655;BME280;48717;55.556;37.816;2022-12-18T00:51:00;98657.00;;;-6.48;100.00
62655;BME280;48717;55.556;37.816;2022-12-18T00:53:27;98740.06;;;-5.91;100.00
62655;BME280;48717;55.556;37.816;2022-12-18T00:55:55;98735.56;;;-5.95;100.00
62655;BME280;48717;55.556;37.816;2022-12-18T00:58:22;98730.38;;;-5.97;100.00
62655;BME280;48717;55.556;37.816;2022-12-18T01:00:49;98724.50;;;-5.94;100.00
62655;BME280;48717;55.556;37.816;2022-12-18T01:03:16;98718.97;;;-6.04;100.00
62655;BME280;48717;55.556;37.816;2022-12-18T01:05:43;98741.53;;;-5.96;100.00
62655;BME280;48717;55.556;37.816;2022-12-18T01:08:10;98731.25;;;-5.96;100.00
62655;BME280;48717;55.556;37.816;2022-12-18T01:10:40;98717.59;;;-5.95;100.00
62655;BME280;48717;55.556;37.816;2022-12-18T01:13:08;98705.59;;;-5.96;100.00
62655;BME280;48717;55.556;37.816;2022-12-18T01:15:35;98712.47;;;-5.95;100.00
62655;BME280;48717;55.556;37.816;2022-12-18T01:18:06;98709.91;;;-5.95;100.00
62655;BME280;48717;55.556;37.816;2022-12-18T01:20:33;98717.59;;;-5.95;100.00
62655;BME280;48717;55.556;37.816;2022-12-18T01:23:00;98711.50;;;-5.97;99.93
62655;BME280;48717;55.556;37.816;2022-12-18T01:25:27;98711.16;;;-5.87;100.00
62655;BME280;48717;55.556;37.816;2022-12-18T01:27:54;98711.16;;;-5.87;98.93
62655;BME280;48717;55.556;37.816;2022-12-18T01:30:21;98682.34;;;-5.99;98.89
62655;BME280;48717;55.556;37.816;2022-12-18T01:32:48;98684.31;;;-5.94;98.46
62655;BME280;48717;55.556;37.816;2022-12-18T01:35:16;98699.84;;;-5.91;98.98
62655;BME280;48717;55.556;37.816;2022-12-18T01:37:43;98695.44;;;-5.93;98.27
62655;BME280;48717;55.556;37.816;2022-12-18T01:40:10;98709.31;;;-5.90;99.09
62655;BME280;48717;55.556;37.816;2022-12-18T01:42:38;98697.06;;;-5.95;98.86
62655;BME280;48717;55.556;37.816;2022-12-18T01:47:40;98708.50;;;-5.88;98.99
62655;BME280;48717;55.556;37.816;2022-12-18T01:52:42;98702.47;;;-5.89;98.49
62655;BME280;48717;55.556;37.816;2022-12-18T01:55:11;98683.25;;;-5.97;99.21
62655;BME280;48717;55.556;37.816;2022-12-18T01:57:39;98707.50;;;-5.92;99.38
62655;BME280;48717;55.556;37.816;2022-12-18T02:00:11;98656.63;;;-6.19;98.84
62655;BME280;48717;55.556;37.816;2022-12-18T02:02:40;98682.25;;;-6.01;99.33
62655;BME280;48717;55.556;37.816;2022-12-18T02:05:09;98680.03;;;-5.93;99.30
62655;BME280;48717;55.556;37.816;2022-12-18T02:10:13;98681.94;;;-5.89;98.73
62655;BME280;48717;55.556;37.816;2022-12-18T02:12:45;98678.34;;;-5.93;98.78
62655;BME280;48717;55.556;37.816;2022-12-18T02:15:24;98666.41;;;-5.92;99.34
62655;BME280;48717;55.556;37.816;2022-12-18T02:18:08;98672.88;;;-6.00;98.92
62655;BME280;48717;55.556;37.816;2022-12-18T02:26:36;98640.22;;;-6.23;98.52
62655;BME280;48717;55.556;37.816;2022-12-18T02:29:10;98669.31;;;-6.04;99.32
62655;BME280;48717;55.556;37.816;2022-12-18T02:31:53;98676.31;;;-6.00;99.08
62655;BME280;48717;55.556;37.816;2022-12-18T02:34:29;98655.47;;;-6.08;98.53
62655;BME280;48717;55.556;37.816;2022-12-18T02:36:58;98679.84;;;-5.98;98.75
62655;BME280;48717;55.556;37.816;2022-12-18T02:39:29;98669.34;;;-6.03;98.64
62655;BME280;48717;55.556;37.816;2022-12-18T02:42:02;98682.25;;;-6.01;98.09
62655;BME280;48717;55.556;37.816;2022-12-18T02:44:35;98698.53;;;-6.00;98.34
62655;BME280;48717;55.556;37.816;2022-12-18T02:47:10;98692.44;;;-6.03;98.72
62655;BME280;48717;55.556;37.816;2022-12-18T02:53:05;98692.41;;;-6.04;98.55
62655;BME280;48717;55.556;37.816;2022-12-18T02:55:59;98693.13;;;-6.07;98.65
62655;BME280;48717;55.556;37.816;2022-12-18T03:01:21;98686.09;;;-6.11;98.79
62655;BME280;48717;55.556;37.816;2022-12-18T03:03:55;98672.34;;;-6.13;99.14
62655;BME280;48717;55.556;37.816;2022-12-18T03:06:29;98675.56;;;-6.17;98.84
62655;BME280;48717;55.556;37.816;2022-12-18T03:09:14;98661.63;;;-6.22;99.19
62655;BME280;48717;55.556;37.816;2022-12-18T03:11:50;98688.47;;;-6.16;99.38
62655;BME280;48717;55.556;37.816;2022-12-18T03:14:41;98690.97;;;-6.17;98.92
62655;BME280;48717;55.556;37.816;2022-12-18T03:17:10;98700.41;;;-6.16;99.24
62655;BME280;48717;55.556;37.816;2022-12-18T03:19:42;98670.13;;;-6.42;98.73
62655;BME280;48717;55.556;37.816;2022-12-18T03:22:09;98697.56;;;-6.22;99.12
62655;BME280;48717;55.556;37.816;2022-12-18T03:24:45;98690.81;;;-6.20;99.19
62655;BME280;48717;55.556;37.816;2022-12-18T03:27:17;98704.44;;;-6.21;98.87
62655;BME280;48717;55.556;37.816;2022-12-18T03:29:49;98688.91;;;-6.24;99.86
62655;BME280;48717;55.556;37.816;2022-12-18T03:32:28;98670.00;;;-6.26;99.38
62655;BME280;48717;55.556;37.816;2022-12-18T03:35:02;98680.84;;;-6.32;98.79
62655;BME280;48717;55.556;37.816;2022-12-18T03:37:33;98693.91;;;-6.27;99.03
62655;BME280;48717;55.556;37.816;2022-12-18T03:40:00;98689.44;;;-6.32;99.08
62655;BME280;48717;55.556;37.816;2022-12-18T03:45:32;98690.22;;;-6.33;98.56
62655;BME280;48717;55.556;37.816;2022-12-18T03:48:25;98672.47;;;-6.46;98.36
62655;BME280;48717;55.556;37.816;2022-12-18T03:51:03;98715.88;;;-6.33;98.41
62655;BME280;48717;55.556;37.816;2022-12-18T03:56:15;98712.53;;;-6.32;97.77
62655;BME280;48717;55.556;37.816;2022-12-18T03:58:44;98709.88;;;-6.33;97.55
62655;BME280;48717;55.556;37.816;2022-12-18T04:01:23;98697.03;;;-6.33;97.26
62655;BME280;48717;55.556;37.816;2022-12-18T04:03:51;98696.31;;;-6.31;96.76
62655;BME280;48717;55.556;37.816;2022-12-18T04:06:21;98707.38;;;-6.32;96.69
62655;BME280;48717;55.556;37.816;2022-12-18T04:08:51;98708.97;;;-6.34;95.91
62655;BME280;48717;55.556;37.816;2022-12-18T04:11:21;98703.66;;;-6.38;95.93
62655;BME280;48717;55.556;37.816;2022-12-18T04:13:48;98696.88;;;-6.36;95.72
62655;BME280;48717;55.556;37.816;2022-12-18T04:16:21;98718.31;;;-6.36;95.73
62655;BME280;48717;55.556;37.816;2022-12-18T04:18:52;98718.97;;;-6.40;95.37
62655;BME280;48717;55.556;37.816;2022-12-18T04:21:20;98744.03;;;-6.34;95.10
62655;BME280;48717;55.556;37.816;2022-12-18T04:23:48;98731.91;;;-6.37;95.07
62655;BME280;48717;55.556;37.816;2022-12-18T04:26:18;98742.50;;;-6.31;94.40
62655;BME280;48717;55.556;37.816;2022-12-18T04:28:56;98734.56;;;-6.35;93.99
62655;BME280;48717;55.556;37.816;2022-12-18T04:31:23;98759.47;;;-6.33;93.90
62655;BME280;48717;55.556;37.816;2022-12-18T04:33:51;98739.16;;;-6.46;94.39
62655;BME280;48717;55.556;37.816;2022-12-18T04:36:18;98762.38;;;-6.26;93.73
62655;BME280;48717;55.556;37.816;2022-12-18T04:38:46;98743.00;;;-6.38;93.73
62655;BME280;48717;55.556;37.816;2022-12-18T04:41:15;98758.69;;;-6.32;93.16
62655;BME280;48717;55.556;37.816;2022-12-18T04:43:45;98762.03;;;-6.33;93.11
62655;BME280;48717;55.556;37.816;2022-12-18T04:46:12;98781.78;;;-6.32;93.42
62655;BME280;48717;55.556;37.816;2022-12-18T04:48:40;98770.63;;;-6.32;93.18
62655;BME280;48717;55.556;37.816;2022-12-18T04:51:07;98780.53;;;-6.40;93.52
62655;BME280;48717;55.556;37.816;2022-12-18T04:53:34;98798.03;;;-6.31;93.79
62655;BME280;48717;55.556;37.816;2022-12-18T04:56:06;98791.97;;;-6.33;93.43
62655;BME280;48717;55.556;37.816;2022-12-18T04:58:35;98797.97;;;-6.33;93.66
62655;BME280;48717;55.556;37.816;2022-12-18T05:01:03;98818.50;;;-6.33;93.37
62655;BME280;48717;55.556;37.816;2022-12-18T05:03:31;98786.78;;;-6.51;93.67
62655;BME280;48717;55.556;37.816;2022-12-18T05:05:58;98790.63;;;-6.43;93.17
62655;BME280;48717;55.556;37.816;2022-12-18T05:08:26;98799.59;;;-6.35;93.65
62655;BME280;48717;55.556;37.816;2022-12-18T05:11:08;98801.63;;;-6.46;92.99
62655;BME280;48717;55.556;37.816;2022-12-18T05:13:36;98811.31;;;-6.40;93.47
62655;BME280;48717;55.556;37.816;2022-12-18T05:16:06;98808.50;;;-6.45;93.29
62655;BME280;48717;55.556;37.816;2022-12-18T05:18:33;98800.97;;;-6.42;92.34
62655;BME280;48717;55.556;37.816;2022-12-18T05:21:01;98813.63;;;-6.45;92.94
62655;BME280;48717;55.556;37.816;2022-12-18T05:23:28;98800.44;;;-6.52;92.81
62655;BME280;48717;55.556;37.816;2022-12-18T05:26:00;98810.69;;;-6.52;92.75
62655;BME280;48717;55.556;37.816;2022-12-18T05:28:29;98818.28;;;-6.54;93.07
62655;BME280;48717;55.556;37.816;2022-12-18T05:30:59;98811.16;;;-6.60;92.88
62655;BME280;48717;55.556;37.816;2022-12-18T05:33:30;98841.28;;;-6.56;93.04
62655;BME280;48717;55.556;37.816;2022-12-18T05:36:03;98834.25;;;-6.60;93.08
62655;BME280;48717;55.556;37.816;2022-12-18T05:38:32;98836.16;;;-6.56;93.07
62655;BME280;48717;55.556;37.816;2022-12-18T05:41:00;98828.81;;;-6.66;92.82
62655;BME280;48717;55.556;37.816;2022-12-18T05:43:27;98822.41;;;-6.74;92.93
62655;BME280;48717;55.556;37.816;2022-12-18T05:45:55;98800.59;;;-6.83;92.39
62655;BME280;48717;55.556;37.816;2022-12-18T05:48:23;98818.09;;;-6.75;92.44
62655;BME280;48717;55.556;37.816;2022-12-18T05:50:50;98852.09;;;-6.61;92.48
62655;BME280;48717;55.556;37.816;2022-12-18T05:53:19;98854.63;;;-6.63;92.09
62655;BME280;48717;55.556;37.816;2022-12-18T05:55:47;98860.88;;;-6.58;92.32
62655;BME280;48717;55.556;37.816;2022-12-18T05:58:15;98875.28;;;-6.60;92.08
62655;BME280;48717;55.556;37.816;2022-12-18T06:00:45;98871.84;;;-6.60;92.36
62655;BME280;48717;55.556;37.816;2022-12-18T06:03:13;98864.53;;;-6.69;92.63
62655;BME280;48717;55.556;37.816;2022-12-18T06:05:43;98865.00;;;-6.60;92.38
62655;BME280;48717;55.556;37.816;2022-12-18T06:08:11;98861.97;;;-6.69;92.57
62655;BME280;48717;55.556;37.816;2022-12-18T06:10:38;98897.72;;;-6.56;92.30
62655;BME280;48717;55.556;37.816;2022-12-18T06:13:06;98891.63;;;-6.58;92.28
62655;BME280;48717;55.556;37.816;2022-12-18T06:15:36;98889.94;;;-6.57;92.04
62655;BME280;48717;55.556;37.816;2022-12-18T06:18:04;98901.09;;;-6.57;92.03
62655;BME280;48717;55.556;37.816;2022-12-18T06:20:31;98888.59;;;-6.67;91.87
62655;BME280;48717;55.556;37.816;2022-12-18T06:22:59;98897.41;;;-6.62;92.10
62655;BME280;48717;55.556;37.816;2022-12-18T06:25:27;98905.97;;;-6.61;92.36
62655;BME280;48717;55.556;37.816;2022-12-18T06:27:54;98904.47;;;-6.58;92.92
62655;BME280;48717;55.556;37.816;2022-12-18T06:30:21;98923.22;;;-6.59;93.14
62655;BME280;48717;55.556;37.816;2022-12-18T06:32:49;98924.91;;;-6.59;93.35
62655;BME280;48717;55.556;37.816;2022-12-18T06:35:22;98937.00;;;-6.57;93.86
62655;BME280;48717;55.556;37.816;2022-12-18T06:37:50;98936.19;;;-6.56;93.73
62655;BME280;48717;55.556;37.816;2022-12-18T06:40:18;98938.75;;;-6.56;94.37
62655;BME280;48717;55.556;37.816;2022-12-18T06:42:45;98947.16;;;-6.58;93.81
62655;BME280;48717;55.556;37.816;2022-12-18T06:45:12;98929.94;;;-6.61;93.53
62655;BME280;48717;55.556;37.816;2022-12-18T06:47:39;98954.78;;;-6.60;92.40
62655;BME280;48717;55.556;37.816;2022-12-18T06:50:06;98972.09;;;-6.56;93.04
62655;BME280;48717;55.556;37.816;2022-12-18T06:52:33;98987.03;;;-6.48;93.48
62655;BME280;48717;55.556;37.816;2022-12-18T06:55:01;98987.50;;;-6.39;93.47
62655;BME280;48717;55.556;37.816;2022-12-18T06:57:28;98988.47;;;-6.37;92.90
62655;BME280;48717;55.556;37.816;2022-12-18T06:59:55;98992.66;;;-6.39;92.83
62655;BME280;48717;55.556;37.816;2022-12-18T07:02:22;98988.63;;;-6.34;92.57
62655;BME280;48717;55.556;37.816;2022-12-18T07:04:50;98978.69;;;-6.44;92.62
62655;BME280;48717;55.556;37.816;2022-12-18T07:07:17;98986.56;;;-6.41;92.44
62655;BME280;48717;55.556;37.816;2022-12-18T07:09:44;98973.06;;;-6.53;92.17
62655;BME280;48717;55.556;37.816;2022-12-18T07:12:11;98985.28;;;-6.49;92.07
62655;BME280;48717;55.556;37.816;2022-12-18T07:14:38;98996.34;;;-6.34;91.93
62655;BME280;48717;55.556;37.816;2022-12-18T07:17:05;99003.00;;;-6.37;91.79
62655;BME280;48717;55.556;37.816;2022-12-18T07:19:33;99008.53;;;-6.30;91.72
62655;BME280;48717;55.556;37.816;2022-12-18T07:22:00;99011.97;;;-6.46;91.77
62655;BME280;48717;55.556;37.816;2022-12-18T07:24:27;99021.75;;;-6.38;91.62
62655;BME280;48717;55.556;37.816;2022-12-18T07:26:55;99037.56;;;-6.31;91.36
62655;BME280;48717;55.556;37.816;2022-12-18T07:29:22;99039.31;;;-6.30;91.10
62655;BME280;48717;55.556;37.816;2022-12-18T07:31:49;99026.31;;;-6.33;91.20
62655;BME280;48717;55.556;37.816;2022-12-18T07:34:16;99035.94;;;-6.29;91.10
62655;BME280;48717;55.556;37.816;2022-12-18T07:36:43;99034.09;;;-6.31;90.44
62655;BME280;48717;55.556;37.816;2022-12-18T07:39:11;99043.63;;;-6.29;89.20
62655;BME280;48717;55.556;37.816;2022-12-18T07:41:38;99053.44;;;-6.21;89.01
62655;BME280;48717;55.556;37.816;2022-12-18T07:44:15;99037.72;;;-6.27;88.54
62655;BME280;48717;55.556;37.816;2022-12-18T07:46:42;99060.59;;;-6.16;88.52
62655;BME280;48717;55.556;37.816;2022-12-18T07:49:09;99067.75;;;-6.10;88.94
62655;BME280;48717;55.556;37.816;2022-12-18T07:51:36;99065.94;;;-6.11;87.53
62655;BME280;48717;55.556;37.816;2022-12-18T07:54:03;99058.59;;;-6.05;87.84
62655;BME280;48717;55.556;37.816;2022-12-18T07:56:30;99063.31;;;-6.12;86.63
62655;BME280;48717;55.556;37.816;2022-12-18T07:58:58;99067.56;;;-6.13;86.79
62655;BME280;48717;55.556;37.816;2022-12-18T08:01:28;99048.78;;;-6.12;86.93
62655;BME280;48717;55.556;37.816;2022-12-18T08:03:57;99060.09;;;-6.08;86.97
62655;BME280;48717;55.556;37.816;2022-12-18T08:06:24;99072.22;;;-6.06;86.12
62655;BME280;48717;55.556;37.816;2022-12-18T08:08:52;99070.94;;;-6.14;86.58
62655;BME280;48717;55.556;37.816;2022-12-18T08:11:21;99097.56;;;-5.95;86.53
62655;BME280;48717;55.556;37.816;2022-12-18T08:13:48;99095.16;;;-5.92;85.93
62655;BME280;48717;55.556;37.816;2022-12-18T08:16:16;99084.81;;;-5.94;85.39
62655;BME280;48717;55.556;37.816;2022-12-18T08:18:43;99104.63;;;-5.91;85.72
62655;BME280;48717;55.556;37.816;2022-12-18T08:21:13;99120.16;;;-5.88;85.71
62655;BME280;48717;55.556;37.816;2022-12-18T08:23:42;99129.75;;;-5.85;84.62
62655;BME280;48717;55.556;37.816;2022-12-18T08:26:10;99113.44;;;-5.86;84.63
62655;BME280;48717;55.556;37.816;2022-12-18T08:28:38;99125.47;;;-5.85;83.77
62655;BME280;48717;55.556;37.816;2022-12-18T08:31:06;99122.91;;;-5.85;83.99
62655;BME280;48717;55.556;37.816;2022-12-18T08:33:34;99136.09;;;-5.79;83.24
62655;BME280;48717;55.556;37.816;2022-12-18T08:36:02;99138.91;;;-5.74;83.89
62655;BME280;48717;55.556;37.816;2022-12-18T08:38:29;99132.72;;;-5.78;84.00
62655;BME280;48717;55.556;37.816;2022-12-18T08:41:03;99132.47;;;-5.82;83.28
62655;BME280;48717;55.556;37.816;2022-12-18T08:43:30;99150.69;;;-5.78;83.33
62655;BME280;48717;55.556;37.816;2022-12-18T08:46:17;99137.06;;;-5.77;83.53
62655;BME280;48717;55.556;37.816;2022-12-18T08:48:45;99140.88;;;-5.85;83.47
62655;BME280;48717;55.556;37.816;2022-12-18T08:51:12;99141.44;;;-5.91;84.25
62655;BME280;48717;55.556;37.816;2022-12-18T08:53:39;99155.34;;;-5.87;84.06
62655;BME280;48717;55.556;37.816;2022-12-18T08:56:07;99149.22;;;-5.89;83.83
62655;BME280;48717;55.556;37.816;2022-12-18T08:58:34;99143.31;;;-6.05;84.16
62655;BME280;48717;55.556;37.816;2022-12-18T09:01:03;99163.50;;;-5.94;84.29
62655;BME280;48717;55.556;37.816;2022-12-18T09:03:31;99152.44;;;-5.93;84.74
62655;BME280;48717;55.556;37.816;2022-12-18T09:05:58;99147.47;;;-5.90;84.02
62655;BME280;48717;55.556;37.816;2022-12-18T09:08:26;99156.13;;;-5.88;84.10
62655;BME280;48717;55.556;37.816;2022-12-18T09:10:54;99178.78;;;-5.81;84.43
62655;BME280;48717;55.556;37.816;2022-12-18T09:13:22;99187.59;;;-5.76;83.23
62655;BME280;48717;55.556;37.816;2022-12-18T09:15:51;99179.13;;;-5.74;83.48
62655;BME280;48717;55.556;37.816;2022-12-18T09:18:20;99177.19;;;-5.79;83.34
62655;BME280;48717;55.556;37.816;2022-12-18T09:20:47;99202.47;;;-5.70;83.31
62655;BME280;48717;55.556;37.816;2022-12-18T09:23:14;99207.06;;;-5.64;83.25
62655;BME280;48717;55.556;37.816;2022-12-18T09:25:41;99202.72;;;-5.65;83.35
62655;BME280;48717;55.556;37.816;2022-12-18T09:28:13;99165.84;;;-5.82;83.26
62655;BME280;48717;55.556;37.816;2022-12-18T09:30:44;99202.47;;;-5.70;83.44
62655;BME280;48717;55.556;37.816;2022-12-18T09:33:12;99191.31;;;-5.70;83.85
62655;BME280;48717;55.556;37.816;2022-12-18T09:35:42;99214.22;;;-5.58;84.32
62655;BME280;48717;55.556;37.816;2022-12-18T09:38:14;99211.31;;;-5.65;84.11
62655;BME280;48717;55.556;37.816;2022-12-18T09:40:48;99213.06;;;-5.64;83.84
62655;BME280;48717;55.556;37.816;2022-12-18T09:43:37;99205.13;;;-5.68;84.92
62655;BME280;48717;55.556;37.816;2022-12-18T09:46:11;99192.91;;;-5.72;84.39
62655;BME280;48717;55.556;37.816;2022-12-18T09:48:46;99222.66;;;-5.61;84.34
62655;BME280;48717;55.556;37.816;2022-12-18T09:53:45;99224.41;;;-5.60;85.15
62655;BME280;48717;55.556;37.816;2022-12-18T09:56:18;99225.03;;;-5.64;85.83
62655;BME280;48717;55.556;37.816;2022-12-18T09:58:58;99231.47;;;-5.56;85.71
62655;BME280;48717;55.556;37.816;2022-12-18T10:01:27;99229.19;;;-5.66;85.54
62655;BME280;48717;55.556;37.816;2022-12-18T10:04:09;99246.97;;;-5.54;85.81
62655;BME280;48717;55.556;37.816;2022-12-18T10:06:45;99247.84;;;-5.54;86.66
62655;BME280;48717;55.556;37.816;2022-12-18T10:14:30;99236.75;;;-5.53;86.29
62655;BME280;48717;55.556;37.816;2022-12-18T10:17:03;99245.63;;;-5.47;87.11
62655;BME280;48717;55.556;37.816;2022-12-18T10:19:51;99238.69;;;-5.48;87.09
62655;BME280;48717;55.556;37.816;2022-12-18T10:22:43;99225.72;;;-5.52;87.09
62655;BME280;48717;55.556;37.816;2022-12-18T10:25:22;99241.03;;;-5.53;87.81
62655;BME280;48717;55.556;37.816;2022-12-18T10:27:53;99232.34;;;-5.55;87.97
62655;BME280;48717;55.556;37.816;2022-12-18T10:30:23;99240.94;;;-5.55;88.81
62655;BME280;48717;55.556;37.816;2022-12-18T10:32:50;99252.34;;;-5.50;89.08
62655;BME280;48717;55.556;37.816;2022-12-18T10:35:23;99245.47;;;-5.51;88.89
62655;BME280;48717;55.556;37.816;2022-12-18T10:38:21;99250.41;;;-5.54;89.65
62655;BME280;48717;55.556;37.816;2022-12-18T10:46:00;99266.00;;;-5.51;90.43
62655;BME280;48717;55.556;37.816;2022-12-18T10:48:29;99246.22;;;-5.68;89.46
62655;BME280;48717;55.556;37.816;2022-12-18T10:50:57;99284.31;;;-5.61;90.13
62655;BME280;48717;55.556;37.816;2022-12-18T10:53:40;99299.00;;;-5.58;90.77
62655;BME280;48717;55.556;37.816;2022-12-18T10:56:08;99305.72;;;-5.60;90.29
62655;BME280;48717;55.556;37.816;2022-12-18T10:58:38;99310.88;;;-5.76;91.09
62655;BME280;48717;55.556;37.816;2022-12-18T11:01:12;99330.91;;;-5.70;90.91
62655;BME280;48717;55.556;37.816;2022-12-18T11:03:59;99325.03;;;-5.67;91.18
62655;BME280;48717;55.556;37.816;2022-12-18T11:06:29;99324.31;;;-5.65;91.09
62655;BME280;48717;55.556;37.816;2022-12-18T11:11:38;99322.75;;;-5.63;92.02
62655;BME280;48717;55.556;37.816;2022-12-18T11:14:17;99323.69;;;-5.60;91.07
62655;BME280;48717;55.556;37.816;2022-12-18T11:16:47;99328.94;;;-5.59;90.83
62655;BME280;48717;55.556;37.816;2022-12-18T11:19:37;99313.72;;;-5.71;92.00
62655;BME280;48717;55.556;37.816;2022-12-18T11:22:24;99332.31;;;-5.60;92.15
62655;BME280;48717;55.556;37.816;2022-12-18T11:25:06;99326.28;;;-5.60;91.05
62655;BME280;48717;55.556;37.816;2022-12-18T11:28:00;99307.63;;;-5.88;91.39
62655;BME280;48717;55.556;37.816;2022-12-18T11:30:30;99340.38;;;-5.69;91.44
62655;BME280;48717;55.556;37.816;2022-12-18T11:33:13;99333.38;;;-5.71;92.13
62655;BME280;48717;55.556;37.816;2022-12-18T11:38:35;99331.09;;;-5.82;92.58
62655;BME280;48717;55.556;37.816;2022-12-18T11:43:53;99362.25;;;-5.76;91.81
62655;BME280;48717;55.556;37.816;2022-12-18T11:46:45;99366.63;;;-5.74;92.01
62655;BME280;48717;55.556;37.816;2022-12-18T11:51:58;99379.97;;;-5.80;91.88
62655;BME280;48717;55.556;37.816;2022-12-18T11:54:27;99385.97;;;-5.80;91.87
62655;BME280;48717;55.556;37.816;2022-12-18T11:57:06;99370.25;;;-5.86;91.94
62655;BME280;48717;55.556;37.816;2022-12-18T12:00:03;99326.91;;;-6.11;91.88
62655;BME280;48717;55.556;37.816;2022-12-18T12:11:00;99399.00;;;-5.77;91.65
62655;BME280;48717;55.556;37.816;2022-12-18T12:16:57;99407.59;;;-5.91;91.90
62655;BME280;48717;55.556;37.816;2022-12-18T12:22:25;99432.81;;;-5.84;92.84
62655;BME280;48717;55.556;37.816;2022-12-18T12:35:25;99443.72;;;-5.88;93.14
62655;BME280;48717;55.556;37.816;2022-12-18T12:40:47;99445.13;;;-5.93;92.73
62655;BME280;48717;55.556;37.816;2022-12-18T12:46:10;99461.09;;;-5.99;92.78
62655;BME280;48717;55.556;37.816;2022-12-18T12:48:47;99465.66;;;-5.93;92.47
62655;BME280;48717;55.556;37.816;2022-12-18T12:53:46;99486.91;;;-5.96;92.90
62655;BME280;48717;55.556;37.816;2022-12-18T12:56:20;99485.16;;;-5.97;93.49
62655;BME280;48717;55.556;37.816;2022-12-18T13:01:27;99498.09;;;-5.95;93.40
62655;BME280;48717;55.556;37.816;2022-12-18T13:04:26;99491.53;;;-6.05;93.93
62655;BME280;48717;55.556;37.816;2022-12-18T13:09:33;99510.13;;;-5.94;94.13
62655;BME280;48717;55.556;37.816;2022-12-18T13:12:10;99510.03;;;-5.96;93.77
62655;BME280;48717;55.556;37.816;2022-12-18T13:15:22;99504.47;;;-6.04;94.11
62655;BME280;48717;55.556;37.816;2022-12-18T13:18:26;99510.31;;;-6.06;94.74
62655;BME280;48717;55.556;37.816;2022-12-18T13:36:55;99555.47;;;-6.10;95.01
62655;BME280;48717;55.556;37.816;2022-12-18T13:39:25;99569.47;;;-6.05;94.94
62655;BME280;48717;55.556;37.816;2022-12-18T13:44:32;99575.81;;;-5.98;94.12
62655;BME280;48717;55.556;37.816;2022-12-18T13:47:27;99569.69;;;-6.00;94.62
62655;BME280;48717;55.556;37.816;2022-12-18T13:49:58;99587.75;;;-5.98;94.53
62655;BME280;48717;55.556;37.816;2022-12-18T13:52:28;99589.19;;;-6.04;94.66
62655;BME280;48717;55.556;37.816;2022-12-18T13:54:57;99582.69;;;-6.12;95.22
62655;BME280;48717;55.556;37.816;2022-12-18T13:59:56;99593.88;;;-6.11;95.07
62655;BME280;48717;55.556;37.816;2022-12-18T14:02:27;99599.88;;;-6.11;95.26
62655;BME280;48717;55.556;37.816;2022-12-18T14:04:54;99601.03;;;-6.06;94.95
62655;BME280;48717;55.556;37.816;2022-12-18T14:07:24;99599.59;;;-6.16;95.01
62655;BME280;48717;55.556;37.816;2022-12-18T14:10:00;99615.47;;;-6.08;94.82
62655;BME280;48717;55.556;37.816;2022-12-18T14:12:49;99609.88;;;-6.16;94.33
62655;BME280;48717;55.556;37.816;2022-12-18T14:15:34;99640.81;;;-5.99;94.68
62655;BME280;48717;55.556;37.816;2022-12-18T14:20:56;99651.63;;;-6.05;94.95
62655;BME280;48717;55.556;37.816;2022-12-18T14:25:57;99649.97;;;-6.03;95.07
62655;BME280;48717;55.556;37.816;2022-12-18T14:28:31;99653.53;;;-6.00;95.03
62655;BME280;48717;55.556;37.816;2022-12-18T14:30:58;99636.59;;;-6.12;95.05
62655;BME280;48717;55.556;37.816;2022-12-18T14:33:27;99663.66;;;-6.04;95.76
62655;BME280;48717;55.556;37.816;2022-12-18T14:36:03;99660.06;;;-6.06;95.33
62655;BME280;48717;55.556;37.816;2022-12-18T14:41:18;99671.84;;;-6.09;95.85
62655;BME280;48717;55.556;37.816;2022-12-18T14:43:47;99671.94;;;-6.08;96.19
62655;BME280;48717;55.556;37.816;2022-12-18T14:46:36;99683.81;;;-6.10;95.81
62655;BME280;48717;55.556;37.816;2022-12-18T14:49:29;99689.13;;;-6.07;95.54
62655;BME280;48717;55.556;37.816;2022-12-18T14:52:02;99698.41;;;-6.09;94.78
62655;BME280;48717;55.556;37.816;2022-12-18T14:54:31;99693.56;;;-6.04;95.11
62655;BME280;48717;55.556;37.816;2022-12-18T14:57:02;99691.97;;;-6.02;94.66
62655;BME280;48717;55.556;37.816;2022-12-18T14:59:30;99712.44;;;-6.04;94.26
62655;BME280;48717;55.556;37.816;2022-12-18T15:02:08;99703.09;;;-6.02;94.78
62655;BME280;48717;55.556;37.816;2022-12-18T15:04:40;99716.03;;;-6.00;93.99
62655;BME280;48717;55.556;37.816;2022-12-18T15:07:21;99718.38;;;-6.05;92.96